Time;durP1;ratioP1;P1;durP2;ratioP2;P2;SDS_P1;SDS_P2;PMS_P1;PMS_P2;Temp;Humidity;BMP_temperature;BMP_pressure;BME280_temperature;BME280_humidity;BME280_pressure;Samples;Min_cycle;Max_cycle;Signal;HPM_P1;HPM_P2
2022/08/15 00:01:10;;;;;;;6.10;5.80;;;34.50;35.00;;;;;;5116330;28;20436;-82
2022/08/15 00:03:41;;;;;;;6.17;5.80;;;34.40;35.00;;;;;;5119358;28;20471;-82
2022/08/15 00:06:30;;;;;;;5.60;5.30;;;34.40;35.00;;;;;;5119142;28;20434;-83
2022/08/15 00:09:11;;;;;;;6.00;5.70;;;34.40;35.00;;;;;;5119560;28;20454;-82
2022/08/15 00:11:41;;;;;;;6.20;5.80;;;34.40;35.00;;;;;;5119377;28;20888;-83
2022/08/15 00:14:10;;;;;;;5.70;5.20;;;34.40;35.00;;;;;;5119230;28;20494;-83
2022/08/15 00:16:47;;;;;;;6.30;5.90;;;34.30;35.00;;;;;;5119640;28;20443;-83
2022/08/15 00:19:16;;;;;;;6.30;5.90;;;34.30;35.10;;;;;;5119114;28;20541;-83
2022/08/15 00:21:46;;;;;;;5.87;5.47;;;34.30;35.10;;;;;;5119488;27;20466;-83
2022/08/15 00:24:18;;;;;;;5.40;5.10;;;34.30;35.20;;;;;;5119573;28;20468;-83
2022/08/15 00:26:56;;;;;;;6.40;6.00;;;34.30;35.20;;;;;;5119266;28;20439;-82
2022/08/15 00:29:25;;;;;;;5.73;5.43;;;34.20;35.20;;;;;;5119025;28;20472;-83
2022/08/15 00:32:08;;;;;;;5.53;5.20;;;34.20;35.20;;;;;;5118915;28;20468;-83
2022/08/15 00:34:56;;;;;;;5.83;5.50;;;34.20;35.20;;;;;;5118863;28;20455;-82
2022/08/15 00:37:24;;;;;;;5.13;4.93;;;34.20;35.20;;;;;;5119356;28;20957;-82
2022/08/15 00:39:53;;;;;;;5.80;5.47;;;34.20;35.20;;;;;;5119808;28;20537;-83
2022/08/15 00:42:23;;;;;;;5.93;5.43;;;34.10;35.20;;;;;;5120441;28;20536;-83
2022/08/15 00:44:57;;;;;;;5.83;5.53;;;34.10;35.20;;;;;;5119699;28;20482;-83
2022/08/15 00:47:40;;;;;;;5.63;5.23;;;34.10;35.30;;;;;;5119681;28;20431;-83
2022/08/15 00:50:09;;;;;;;4.90;4.70;;;34.10;35.30;;;;;;5119334;28;20436;-84
2022/08/15 00:52:57;;;;;;;5.60;5.30;;;34.10;35.30;;;;;;5120234;28;20569;-83
2022/08/15 00:55:28;;;;;;;6.00;5.60;;;34.10;35.30;;;;;;5119382;28;20460;-83
2022/08/15 00:57:57;;;;;;;5.40;5.00;;;34.10;35.30;;;;;;5119704;28;20501;-83
2022/08/15 01:00:32;;;;;;;5.87;5.47;;;34.00;35.40;;;;;;5119550;28;20443;-83
2022/08/15 01:03:06;;;;;;;5.40;5.00;;;34.00;35.40;;;;;;5120212;28;20455;-84
2022/08/15 01:05:42;;;;;;;5.43;5.03;;;34.00;35.50;;;;;;5119236;28;20457;-83
2022/08/15 01:08:15;;;;;;;5.63;5.30;;;33.90;35.40;;;;;;5118965;28;20440;-84
2022/08/15 01:10:48;;;;;;;5.67;5.37;;;33.90;35.50;;;;;;5118795;28;20470;-83
2022/08/15 01:13:29;;;;;;;5.63;5.33;;;33.90;35.50;;;;;;5119333;28;20527;-84
2022/08/15 01:16:18;;;;;;;6.60;6.10;;;33.80;35.50;;;;;;5119172;28;20438;-84
2022/08/15 01:19:03;;;;;;;5.27;5.00;;;33.80;35.50;;;;;;5119003;28;20918;-84
2022/08/15 01:21:35;;;;;;;5.60;5.30;;;33.80;35.60;;;;;;5119657;28;20526;-83
2022/08/15 01:24:14;;;;;;;5.93;5.60;;;33.80;35.60;;;;;;5119135;28;20459;-83
2022/08/15 01:26:45;;;;;;;5.33;5.03;;;33.80;35.60;;;;;;5119839;28;20436;-83
2022/08/15 01:29:14;;;;;;;5.43;5.13;;;33.70;35.60;;;;;;5120191;28;20440;-83
2022/08/15 01:31:44;;;;;;;6.03;5.63;;;33.70;35.60;;;;;;5119640;27;20550;-83
2022/08/15 01:34:16;;;;;;;5.13;4.93;;;33.70;35.60;;;;;;5119661;28;20460;-83
2022/08/15 01:36:46;;;;;;;5.97;5.57;;;33.70;35.60;;;;;;5119808;28;20444;-83
2022/08/15 01:39:17;;;;;;;6.20;5.70;;;33.70;35.60;;;;;;5119144;28;20483;-83
2022/08/15 01:41:48;;;;;;;5.23;5.03;;;33.60;35.70;;;;;;5118241;28;20505;-83
2022/08/15 01:44:26;;;;;;;5.17;4.97;;;33.60;35.70;;;;;;5118453;27;20468;-83
2022/08/15 01:47:11;;;;;;;6.33;5.73;;;33.60;35.70;;;;;;5119084;28;20444;-83
2022/08/15 01:49:44;;;;;;;5.87;5.57;;;33.60;35.70;;;;;;5118364;28;20455;-83
2022/08/15 01:52:28;;;;;;;5.50;5.20;;;33.50;35.70;;;;;;5119015;28;20989;-83
2022/08/15 01:55:17;;;;;;;5.60;5.30;;;33.50;35.70;;;;;;5118875;28;20476;-83
2022/08/15 01:57:49;;;;;;;5.07;4.83;;;33.50;35.80;;;;;;5118258;28;20448;-84
2022/08/15 02:00:20;;;;;;;5.60;5.17;;;33.40;35.80;;;;;;5118679;28;20459;-83
2022/08/15 02:02:48;;;;;;;5.40;5.10;;;33.40;35.20;;;;;;5118316;28;20444;-84
2022/08/15 02:05:16;;;;;;;5.87;5.57;;;33.40;35.90;;;;;;5118362;28;20540;-83
2022/08/15 02:07:44;;;;;;;5.53;5.23;;;33.40;35.90;;;;;;5118556;28;20477;-83
2022/08/15 02:10:32;;;;;;;5.83;5.50;;;33.40;35.90;;;;;;5128526;27;20535;-84
2022/08/15 02:13:02;;;;;;;5.77;5.40;;;33.30;35.90;;;;;;5120404;28;20547;-84
2022/08/15 02:15:42;;;;;;;5.40;5.10;;;33.30;36.00;;;;;;5115192;28;20443;-85
2022/08/15 02:18:11;;;;;;;6.00;5.60;;;33.20;36.00;;;;;;5113792;28;20447;-85
2022/08/15 02:20:46;;;;;;;6.10;5.70;;;33.10;36.20;;;;;;5114594;28;20442;-85
2022/08/15 02:23:18;;;;;;;5.80;5.50;;;33.10;36.30;;;;;;5115102;28;20447;-85
2022/08/15 02:25:47;;;;;;;6.40;5.90;;;33.10;36.40;;;;;;5114951;28;20469;-85
2022/08/15 02:28:17;;;;;;;5.60;5.30;;;33.00;36.40;;;;;;5118396;28;20525;-84
2022/08/15 02:31:07;;;;;;;5.20;4.90;;;33.00;36.50;;;;;;5117325;28;20448;-85
2022/08/15 02:33:38;;;;;;;5.73;5.23;;;32.90;36.60;;;;;;5116570;28;20445;-84
2022/08/15 02:36:14;;;;;;;5.70;5.30;;;32.90;37.20;;;;;;5116425;28;20471;-84
2022/08/15 02:38:59;;;;;;;5.53;5.23;;;32.80;36.70;;;;;;5117266;28;20528;-84
2022/08/15 02:41:29;;;;;;;5.90;5.50;;;32.80;36.80;;;;;;5117540;28;20455;-84
2022/08/15 02:44:12;;;;;;;5.40;5.10;;;32.80;36.90;;;;;;5117986;28;20571;-84
2022/08/15 02:46:50;;;;;;;5.27;5.03;;;32.70;36.90;;;;;;5118889;28;20418;-84
2022/08/15 02:49:34;;;;;;;5.90;5.40;;;32.70;36.90;;;;;;5119105;28;20491;-84
2022/08/15 02:52:16;;;;;;;5.50;5.20;;;32.60;37.00;;;;;;5118525;28;20539;-84
2022/08/15 02:54:48;;;;;;;6.30;5.77;;;32.70;37.10;;;;;;5118992;28;20464;-84
2022/08/15 02:57:28;;;;;;;6.33;5.67;;;32.70;37.10;;;;;;5118468;28;20459;-84
2022/08/15 02:59:58;;;;;;;5.67;5.27;;;32.70;37.00;;;;;;5119581;28;20439;-84
2022/08/15 03:02:54;;;;;;;5.70;5.30;;;32.60;37.00;;;;;;5118749;28;20544;-84
2022/08/15 03:05:22;;;;;;;5.57;5.27;;;32.60;37.10;;;;;;5118681;28;20529;-84
2022/08/15 03:07:50;;;;;;;5.60;5.30;;;32.60;37.30;;;;;;5118808;28;20908;-84
2022/08/15 03:10:18;;;;;;;5.57;5.27;;;32.60;37.20;;;;;;5119051;28;20470;-84
2022/08/15 03:12:59;;;;;;;5.50;5.20;;;32.50;37.20;;;;;;5117586;28;20467;-83
2022/08/15 03:15:32;;;;;;;5.63;5.20;;;32.50;37.30;;;;;;5118225;28;20467;-84
2022/08/15 03:18:01;;;;;;;5.10;4.83;;;32.50;37.20;;;;;;5118596;28;20455;-84
2022/08/15 03:20:29;;;;;;;5.87;5.50;;;32.50;37.30;;;;;;5118179;28;20477;-83
2022/08/15 03:22:58;;;;;;;6.17;5.77;;;32.40;37.20;;;;;;5117398;28;20406;-83
2022/08/15 03:25:26;;;;;;;6.07;5.67;;;32.40;37.40;;;;;;5117532;28;20501;-84
2022/08/15 03:27:57;;;;;;;6.03;5.43;;;32.40;37.30;;;;;;5117671;28;20447;-83
2022/08/15 03:30:24;;;;;;;5.53;5.13;;;32.40;37.40;;;;;;5118256;28;20448;-84
2022/08/15 03:32:55;;;;;;;5.13;4.83;;;32.30;37.50;;;;;;5117682;28;20500;-84
2022/08/15 03:35:26;;;;;;;5.77;5.47;;;32.30;37.40;;;;;;5117735;28;20464;-84
2022/08/15 03:37:56;;;;;;;5.60;5.30;;;32.30;37.50;;;;;;5120050;28;20452;-84
2022/08/15 03:40:27;;;;;;;5.93;5.43;;;32.20;37.50;;;;;;5121775;28;20467;-84
2022/08/15 03:42:58;;;;;;;5.73;5.40;;;32.20;37.60;;;;;;5121537;28;20474;-84
2022/08/15 03:45:36;;;;;;;6.40;5.90;;;32.20;37.50;;;;;;5121705;28;20876;-84
2022/08/15 03:48:10;;;;;;;5.70;5.33;;;32.20;37.60;;;;;;5121163;28;20445;-83
2022/08/15 03:50:50;;;;;;;5.03;4.83;;;32.20;37.60;;;;;;5122715;28;20436;-84
2022/08/15 03:53:27;;;;;;;5.60;5.30;;;32.10;37.60;;;;;;5122148;28;20449;-84
2022/08/15 03:55:56;;;;;;;6.30;5.90;;;32.20;37.70;;;;;;5122872;28;20433;-84
2022/08/15 03:58:26;;;;;;;5.87;5.47;;;32.10;37.70;;;;;;5122714;28;20454;-84
2022/08/15 04:01:03;;;;;;;5.87;5.50;;;32.10;38.40;;;;;;5122536;28;20474;-83
2022/08/15 04:03:33;;;;;;;5.80;5.40;;;32.10;37.70;;;;;;5122692;28;20499;-84
2022/08/15 04:06:06;;;;;;;5.80;5.40;;;32.10;37.80;;;;;;5129795;28;20489;-83
2022/08/15 04:08:41;;;;;;;6.03;5.63;;;32.00;37.70;;;;;;5132306;28;20422;-83
2022/08/15 04:11:30;;;;;;;5.57;5.17;;;32.00;37.70;;;;;;5126789;28;20526;-84
2022/08/15 04:14:06;;;;;;;5.93;5.53;;;31.90;37.80;;;;;;5122729;28;20471;-84
2022/08/15 04:16:55;;;;;;;6.07;5.67;;;32.00;37.80;;;;;;5122243;28;20494;-83
2022/08/15 04:19:32;;;;;;;5.90;5.43;;;32.00;37.90;;;;;;5123270;28;20477;-83
2022/08/15 04:22:13;;;;;;;5.23;4.93;;;31.90;37.80;;;;;;5123045;28;20416;-83
2022/08/15 04:25:01;;;;;;;5.63;5.23;;;31.90;37.90;;;;;;5123113;28;20455;-83
2022/08/15 04:27:46;;;;;;;5.40;5.10;;;31.90;37.80;;;;;;5123347;28;20444;-83
2022/08/15 04:30:20;;;;;;;5.37;5.07;;;31.90;37.80;;;;;;5123047;28;20443;-83
2022/08/15 04:32:49;;;;;;;5.80;5.40;;;31.90;37.80;;;;;;5122454;28;20524;-83
2022/08/15 04:35:39;;;;;;;5.50;5.20;;;31.90;37.80;;;;;;5121342;28;20452;-83
2022/08/15 04:38:07;;;;;;;5.60;5.20;;;31.90;37.80;;;;;;5121786;28;20504;-83
2022/08/15 04:40:35;;;;;;;5.40;5.07;;;31.90;37.90;;;;;;5122449;28;20474;-83
2022/08/15 04:43:23;;;;;;;5.70;5.40;;;31.80;37.80;;;;;;5122269;28;20429;-83
2022/08/15 04:45:52;;;;;;;6.10;5.80;;;31.70;37.80;;;;;;5121246;28;20445;-83
2022/08/15 04:48:20;;;;;;;5.97;5.33;;;31.80;37.90;;;;;;5121235;28;20535;-83
2022/08/15 04:50:51;;;;;;;5.53;5.23;;;31.70;37.80;;;;;;5120676;28;20418;-83
2022/08/15 04:53:20;;;;;;;5.17;4.87;;;31.70;37.80;;;;;;5121319;28;20492;-83
2022/08/15 04:55:58;;;;;;;5.30;5.00;;;31.80;37.80;;;;;;5121046;28;20444;-83
2022/08/15 04:58:27;;;;;;;4.97;4.67;;;31.70;37.80;;;;;;5121295;28;20447;-83
2022/08/15 05:01:15;;;;;;;4.93;4.67;;;31.70;37.80;;;;;;5121248;28;20411;-84
2022/08/15 05:03:45;;;;;;;5.30;5.00;;;31.70;37.80;;;;;;5120968;28;20448;-83
2022/08/15 05:06:23;;;;;;;5.00;4.73;;;31.70;37.80;;;;;;5119855;28;20469;-83
2022/08/15 05:08:57;;;;;;;5.00;4.70;;;31.70;37.90;;;;;;5120511;28;20420;-83
2022/08/15 05:11:25;;;;;;;5.17;4.93;;;31.60;37.80;;;;;;5121140;28;20502;-83
2022/08/15 05:14:13;;;;;;;5.10;4.80;;;31.60;37.90;;;;;;5120405;28;20566;-83
2022/08/15 05:17:01;;;;;;;6.17;5.77;;;31.60;37.80;;;;;;5120766;28;20519;-83
2022/08/15 05:19:30;;;;;;;5.00;4.73;;;31.60;37.80;;;;;;5121012;28;20451;-83
2022/08/15 05:21:59;;;;;;;5.63;5.33;;;31.60;37.80;;;;;;5119773;28;20444;-84
2022/08/15 05:24:28;;;;;;;5.13;4.63;;;31.60;37.60;;;;;;5120851;28;20466;-83
2022/08/15 05:39:34;;;;;;;5.27;4.93;;;31.60;37.10;;;;;;5134226;27;20561;-83
2022/08/15 05:42:06;;;;;;;5.13;4.83;;;31.80;37.30;;;;;;5134302;27;20447;-83
2022/08/15 05:44:41;;;;;;;5.63;5.30;;;31.60;37.60;;;;;;5135596;27;20460;-83
2022/08/15 05:47:16;;;;;;;4.57;4.37;;;31.60;37.60;;;;;;5136362;27;20471;-83
2022/08/15 05:49:50;;;;;;;5.33;5.03;;;31.60;37.70;;;;;;5136097;27;20454;-83
2022/08/15 05:52:30;;;;;;;4.70;4.50;;;31.60;37.60;;;;;;5135984;27;20442;-83
2022/08/15 05:55:14;;;;;;;4.80;4.60;;;31.60;37.50;;;;;;5136383;27;20458;-83
2022/08/15 05:57:49;;;;;;;5.23;4.93;;;31.70;37.40;;;;;;5134687;27;20802;-82
2022/08/15 06:00:20;;;;;;;5.20;4.90;;;31.70;37.40;;;;;;5131243;27;20530;-82
2022/08/15 06:02:50;;;;;;;4.77;4.57;;;31.80;37.30;;;;;;5131727;27;20447;-83
2022/08/15 06:05:27;;;;;;;4.93;4.73;;;31.80;37.30;;;;;;5130689;27;20467;-83
2022/08/15 06:08:07;;;;;;;5.10;4.80;;;31.80;37.30;;;;;;5133548;27;20549;-83
2022/08/15 06:10:39;;;;;;;4.93;4.63;;;31.90;37.20;;;;;;5134138;27;20443;-83
2022/08/15 06:13:21;;;;;;;5.47;5.17;;;31.90;37.10;;;;;;5136265;27;20488;-84
2022/08/15 06:15:52;;;;;;;4.97;4.67;;;31.90;37.00;;;;;;5139125;27;20439;-84
2022/08/15 06:18:23;;;;;;;4.67;4.37;;;32.00;37.00;;;;;;5135056;27;20435;-84
2022/08/15 06:20:57;;;;;;;5.37;5.07;;;32.10;36.90;;;;;;5135547;27;20449;-84
2022/08/15 06:23:30;;;;;;;5.10;4.80;;;32.10;36.60;;;;;;5134140;27;20447;-83
2022/08/15 06:26:13;;;;;;;4.67;4.47;;;32.20;36.60;;;;;;5135703;27;20447;-82
2022/08/15 06:28:54;;;;;;;5.40;5.00;;;32.20;36.70;;;;;;5135612;27;20508;-83
2022/08/15 06:31:27;;;;;;;4.73;4.43;;;32.20;36.60;;;;;;5136023;27;20422;-83
2022/08/15 06:34:11;;;;;;;4.90;4.63;;;32.20;36.50;;;;;;5135580;27;20484;-83
2022/08/15 06:37:05;;;;;;;4.90;4.60;;;32.20;36.60;;;;;;5135973;27;20431;-83
2022/08/15 06:39:37;;;;;;;4.80;4.50;;;32.20;36.70;;;;;;5127461;27;20423;-83
2022/08/15 06:42:09;;;;;;;5.10;4.90;;;32.20;36.60;;;;;;5121704;27;20524;-83
2022/08/15 06:44:40;;;;;;;4.97;4.67;;;32.10;36.80;;;;;;5120622;27;20435;-82
2022/08/15 06:47:10;;;;;;;5.20;4.90;;;32.10;36.80;;;;;;5118842;28;20424;-83
2022/08/15 06:49:40;;;;;;;4.90;4.57;;;32.10;36.70;;;;;;5117224;28;20502;-82
2022/08/15 06:52:09;;;;;;;4.83;4.53;;;32.10;37.00;;;;;;5119573;27;20432;-83
2022/08/15 06:54:46;;;;;;;5.20;4.90;;;32.10;36.80;;;;;;5119598;27;20544;-83
2022/08/15 06:57:21;;;;;;;4.97;4.77;;;32.10;37.00;;;;;;5120374;27;20433;-83
2022/08/15 07:00:02;;;;;;;4.67;4.33;;;32.10;37.10;;;;;;5121090;27;20447;-83
2022/08/15 07:02:50;;;;;;;4.70;4.30;;;32.10;36.80;;;;;;5120886;27;20489;-83
2022/08/15 07:05:22;;;;;;;4.47;4.27;;;32.10;36.90;;;;;;5120795;27;20468;-83
2022/08/15 07:08:00;;;;;;;5.27;4.90;;;32.20;37.10;;;;;;5120963;27;20471;-84
2022/08/15 07:10:32;;;;;;;5.17;4.80;;;32.20;36.80;;;;;;5120989;27;20419;-83
2022/08/15 07:13:05;;;;;;;4.57;4.33;;;32.20;36.70;;;;;;5120668;27;20454;-82
2022/08/15 07:15:43;;;;;;;4.80;4.60;;;32.20;36.80;;;;;;5120216;27;20490;-83
2022/08/15 07:18:13;;;;;;;4.83;4.53;;;32.20;36.80;;;;;;5121535;27;20475;-83
2022/08/15 07:20:41;;;;;;;4.67;4.47;;;32.20;36.70;;;;;;5121083;27;20772;-83
2022/08/15 07:23:21;;;;;;;5.37;5.10;;;32.30;36.80;;;;;;5121435;27;20521;-83
2022/08/15 07:25:51;;;;;;;4.93;4.67;;;32.40;36.70;;;;;;5120868;27;20560;-83
2022/08/15 07:28:27;;;;;;;5.20;4.90;;;32.40;36.70;;;;;;5120003;28;20472;-83
2022/08/15 07:31:00;;;;;;;4.87;4.57;;;32.40;36.70;;;;;;5119575;27;20446;-83
2022/08/15 07:33:33;;;;;;;4.67;4.40;;;32.40;36.70;;;;;;5119630;27;20467;-82
2022/08/15 07:36:18;;;;;;;4.80;4.50;;;32.50;36.70;;;;;;5120750;27;20497;-83
2022/08/15 07:39:02;;;;;;;4.93;4.63;;;32.50;36.50;;;;;;5120779;27;20425;-82
2022/08/15 07:41:32;;;;;;;4.80;4.53;;;32.50;36.80;;;;;;5121165;28;20435;-83
2022/08/15 07:44:19;;;;;;;5.20;4.90;;;32.50;36.50;;;;;;5119580;27;20490;-83
2022/08/15 07:46:51;;;;;;;5.30;5.00;;;32.50;36.50;;;;;;5120699;27;20503;-83
2022/08/15 07:49:25;;;;;;;5.10;4.90;;;32.50;36.50;;;;;;5118409;27;20479;-83
2022/08/15 07:52:02;;;;;;;5.60;5.30;;;32.60;36.60;;;;;;5116019;27;20469;-83
2022/08/15 07:54:31;;;;;;;4.77;4.57;;;32.60;36.60;;;;;;5115791;27;20561;-83
2022/08/15 07:57:24;;;;;;;4.80;4.53;;;32.60;36.40;;;;;;5115696;27;20493;-82
2022/08/15 08:00:18;;;;;;;4.83;4.63;;;32.60;36.40;;;;;;5114123;28;20523;-83
2022/08/15 08:03:13;;;;;;;4.90;4.70;;;32.70;36.30;;;;;;5114514;28;20497;-83
2022/08/15 08:06:03;;;;;;;4.30;4.10;;;32.80;36.00;;;;;;5113922;27;20782;-82
2022/08/15 08:08:53;;;;;;;4.40;4.20;;;32.90;36.10;;;;;;5114430;27;20471;-82
2022/08/15 08:11:31;;;;;;;5.40;4.47;;;33.00;35.80;;;;;;5114603;27;20471;-84
2022/08/15 08:14:01;;;;;;;4.80;4.60;;;33.00;35.70;;;;;;5113944;28;20938;-82
2022/08/15 08:16:54;;;;;;;4.70;4.40;;;33.10;35.40;;;;;;5114183;28;20434;-82
2022/08/15 08:19:33;;;;;;;4.73;4.53;;;33.20;35.50;;;;;;5114241;27;20533;-82
2022/08/15 08:22:07;;;;;;;4.40;4.20;;;33.20;35.60;;;;;;5114331;27;20448;-82
2022/08/15 08:24:44;;;;;;;4.60;4.40;;;33.30;35.50;;;;;;5113879;27;20486;-82
2022/08/15 08:27:49;;;;;;;4.90;4.60;;;33.30;35.60;;;;;;5114466;27;20439;-82
2022/08/15 08:42:35;;;;;;;;;;;;;;;;;;;;;
2022/08/15 08:49:36;;;;;;;;;;;;;;;;;;;;;
2022/08/15 08:56:03;;;;;;;4.87;4.57;;;33.90;35.20;;;;;;5012358;28;20447;-84
2022/08/15 08:59:05;;;;;;;4.33;4.13;;;33.90;34.90;;;;;;5034704;28;20985;-83
2022/08/15 09:04:57;;;;;;;4.53;4.33;;;34.10;34.80;;;;;;5034963;28;20491;-82
2022/08/15 09:07:49;;;;;;;4.30;4.10;;;34.20;34.60;;;;;;5028112;28;20518;-82
2022/08/15 09:10:24;;;;;;;4.57;4.47;;;34.50;34.80;;;;;;5031296;28;20468;-83
2022/08/15 09:15:45;;;;;;;4.73;4.43;;;34.90;34.30;;;;;;5037356;28;20489;-82
2022/08/15 09:18:22;;;;;;;4.60;4.20;;;35.30;34.00;;;;;;5039944;28;20475;-82
2022/08/15 09:20:56;;;;;;;4.47;4.27;;;35.40;34.30;;;;;;5037042;28;20447;-83
2022/08/15 09:23:27;;;;;;;4.13;4.03;;;35.40;34.50;;;;;;5042567;28;20443;-82
2022/08/15 09:26:03;;;;;;;4.13;3.97;;;35.60;34.20;;;;;;5050900;28;20446;-82
2022/08/15 09:28:33;;;;;;;4.50;4.20;;;35.70;34.30;;;;;;5067184;28;20450;-83
2022/08/15 09:31:06;;;;;;;3.90;3.80;;;35.80;34.30;;;;;;5066775;28;20436;-83
2022/08/15 09:34:17;;;;;;;4.43;4.23;;;36.00;34.50;;;;;;5070066;28;20438;-82
2022/08/15 09:37:22;;;;;;;4.00;3.90;;;36.20;34.80;;;;;;5041928;28;20443;-82
2022/08/15 09:40:06;;;;;;;3.90;3.80;;;36.60;33.90;;;;;;5052331;28;20539;-83
2022/08/15 09:43:02;;;;;;;4.03;3.87;;;36.80;33.80;;;;;;5057517;28;21036;-82
2022/08/15 09:45:53;;;;;;;4.17;4.07;;;37.10;33.40;;;;;;5058788;28;20447;-81
2022/08/15 09:48:35;;;;;;;3.67;3.57;;;37.30;33.20;;;;;;5058431;28;20457;-83
2022/08/15 09:51:13;;;;;;;4.03;3.80;;;37.40;32.90;;;;;;5058381;28;20431;-83
2022/08/15 09:53:53;;;;;;;4.10;3.80;;;37.60;32.90;;;;;;5057132;28;20473;-83
2022/08/15 09:56:32;;;;;;;5.83;4.03;;;37.80;32.90;;;;;;5058328;28;20526;-83
2022/08/15 09:59:14;;;;;;;4.03;3.93;;;38.10;32.70;;;;;;5058447;28;20442;-83
2022/08/15 10:01:49;;;;;;;4.00;3.87;;;38.20;32.70;;;;;;5056634;28;20481;-81
2022/08/15 10:04:40;;;;;;;4.03;3.83;;;38.20;32.70;;;;;;5056126;28;20466;-83
2022/08/15 10:07:32;;;;;;;4.03;3.83;;;38.40;32.50;;;;;;5055719;28;20481;-83
2022/08/15 10:10:12;;;;;;;4.80;3.50;;;38.50;32.50;;;;;;5056196;28;20502;-83
2022/08/15 10:13:11;;;;;;;7.53;4.13;;;38.60;32.20;;;;;;5055517;28;20929;-83
2022/08/15 10:15:43;;;;;;;4.27;4.10;;;38.70;32.20;;;;;;5059503;28;20452;-83
2022/08/15 10:18:12;;;;;;;3.77;3.67;;;38.70;32.30;;;;;;5059929;28;20541;-83
2022/08/15 10:20:53;;;;;;;3.77;3.53;;;38.70;32.20;;;;;;5059810;28;20561;-83
2022/08/15 10:23:29;;;;;;;3.80;3.70;;;38.90;32.00;;;;;;5059761;28;20446;-83
2022/08/15 10:26:21;;;;;;;3.67;3.57;;;38.90;32.00;;;;;;5059770;28;20446;-83
2022/08/15 10:29:13;;;;;;;3.70;3.60;;;39.00;31.90;;;;;;5059260;28;20442;-83
2022/08/15 10:31:52;;;;;;;3.67;3.57;;;39.30;32.10;;;;;;5061650;28;20450;-83
2022/08/15 10:34:35;;;;;;;3.73;3.63;;;39.50;32.20;;;;;;5060647;28;20531;-83
2022/08/15 10:37:09;;;;;;;3.57;3.47;;;39.70;32.00;;;;;;5059387;28;20487;-83
2022/08/15 10:39:51;;;;;;;3.53;3.43;;;39.90;32.00;;;;;;5059092;28;20470;-83
2022/08/15 10:42:26;;;;;;;3.50;3.40;;;40.20;31.80;;;;;;5059602;28;20513;-82
2022/08/15 10:45:00;;;;;;;3.60;3.50;;;40.40;31.70;;;;;;5059212;28;20472;-83
2022/08/15 10:47:32;;;;;;;3.83;3.63;;;40.70;31.60;;;;;;5060119;28;20445;-83
2022/08/15 10:50:07;;;;;;;3.20;3.20;;;40.90;31.30;;;;;;5059725;28;20477;-83
2022/08/15 10:52:42;;;;;;;3.67;3.47;;;41.10;31.10;;;;;;5059456;28;20449;-83
2022/08/15 10:55:29;;;;;;;3.40;3.30;;;41.20;31.00;;;;;;5059262;28;20466;-83
2022/08/15 10:58:20;;;;;;;3.30;3.30;;;41.50;30.80;;;;;;5059111;28;20646;-83
2022/08/15 11:01:04;;;;;;;3.60;3.47;;;41.70;30.60;;;;;;5059622;28;20468;-83
2022/08/15 11:03:39;;;;;;;3.30;3.30;;;42.00;30.40;;;;;;5059212;28;20471;-82
2022/08/15 11:06:27;;;;;;;3.27;3.17;;;42.20;30.20;;;;;;5060046;28;20437;-83
2022/08/15 11:08:58;;;;;;;3.10;3.00;;;42.40;30.10;;;;;;5059436;28;20525;-83
2022/08/15 11:11:27;;;;;;;3.37;3.13;;;42.60;30.00;;;;;;5059658;28;20454;-83
2022/08/15 11:13:56;;;;;;;3.17;3.07;;;43.00;29.80;;;;;;5059076;28;20488;-83
2022/08/15 11:16:29;;;;;;;2.80;2.80;;;43.30;29.70;;;;;;5059318;28;20492;-84
2022/08/15 11:19:13;;;;;;;3.40;3.30;;;43.50;29.40;;;;;;5059209;28;20446;-83
2022/08/15 11:22:03;;;;;;;2.90;2.90;;;43.80;29.30;;;;;;5059051;28;20426;-83
2022/08/15 11:24:37;;;;;;;2.90;2.90;;;44.60;28.80;;;;;;5060638;28;20474;-83
2022/08/15 11:27:11;;;;;;;2.87;2.77;;;45.40;28.10;;;;;;5061842;28;20448;-83
2022/08/15 11:29:52;;;;;;;2.67;2.67;;;46.30;27.50;;;;;;5062234;28;20460;-84
2022/08/15 11:32:26;;;;;;;2.67;2.57;;;47.40;26.50;;;;;;5060877;28;20533;-82
2022/08/15 11:34:57;;;;;;;2.15;2.15;;;48.20;25.90;;;;;;5060648;28;20465;-82
2022/08/15 11:37:30;;;;;;;1.95;1.95;;;48.90;25.50;;;;;;5061919;28;20225;-81
2022/08/15 11:40:01;;;;;;;1.70;1.70;;;49.50;25.00;;;;;;5061923;28;20297;-82
2022/08/15 11:42:37;;;;;;;1.88;1.80;;;50.30;24.50;;;;;;5061666;28;20200;-83
2022/08/15 11:45:28;;;;;;;1.80;1.80;;;50.90;24.10;;;;;;5062341;28;20770;-82
2022/08/15 11:48:20;;;;;;;1.67;1.67;;;51.60;23.60;;;;;;5061718;28;20197;-82
2022/08/15 11:50:57;;;;;;;1.88;1.88;;;52.10;23.20;;;;;;5060294;28;20212;-83
2022/08/15 11:53:29;;;;;;;1.30;1.30;;;52.70;22.70;;;;;;5061066;28;20205;-83
2022/08/15 11:55:58;;;;;;;1.48;1.48;;;52.70;22.40;;;;;;5060998;28;20209;-82
2022/08/15 11:58:31;;;;;;;1.30;1.30;;;53.30;22.60;;;;;;5062397;28;20221;-82
2022/08/15 12:01:00;;;;;;;1.27;1.27;;;53.40;22.50;;;;;;5061349;28;20224;-82
2022/08/15 12:03:32;;;;;;;1.27;1.27;;;53.60;22.40;;;;;;5061340;28;20204;-82
2022/08/15 12:06:22;;;;;;;1.35;1.35;;;53.90;22.20;;;;;;5063294;28;20225;-82
2022/08/15 12:09:05;;;;;;;1.42;1.42;;;54.30;22.10;;;;;;5065848;28;20205;-82
2022/08/15 12:11:39;;;;;;;1.20;1.20;;;54.50;21.90;;;;;;5062491;28;20208;-83
2022/08/15 12:14:14;;;;;;;1.42;1.42;;;54.50;22.00;;;;;;5062379;28;20251;-83
2022/08/15 12:16:53;;;;;;;1.42;1.42;;;54.60;21.60;;;;;;5061120;28;20205;-82
2022/08/15 12:19:40;;;;;;;1.52;1.38;;;54.00;21.90;;;;;;5060370;28;20220;-82
2022/08/15 12:22:33;;;;;;;1.60;1.60;;;52.60;22.70;;;;;;5060867;28;20219;-82
2022/08/15 12:25:22;;;;;;;1.42;1.42;;;52.80;22.90;;;;;;5061184;28;20224;-82
2022/08/15 12:28:11;;;;;;;1.40;1.40;;;53.20;22.00;;;;;;5060615;28;20208;-82
2022/08/15 12:31:01;;;;;;;2.05;2.00;;;52.30;22.60;;;;;;5060341;28;20205;-82
2022/08/15 12:33:31;;;;;;;2.15;2.15;;;50.90;23.50;;;;;;5059521;28;20225;-82
2022/08/15 12:36:02;;;;;;;2.13;1.92;;;50.00;24.00;;;;;;5058485;28;20544;-82
2022/08/15 12:38:31;;;;;;;2.08;2.08;;;49.60;24.40;;;;;;5057720;28;20205;-82
2022/08/15 12:41:00;;;;;;;1.88;1.88;;;50.10;24.10;;;;;;5058942;28;20288;-82
2022/08/15 12:43:48;;;;;;;1.95;1.95;;;50.70;23.60;;;;;;5058699;28;20228;-83
2022/08/15 12:46:17;;;;;;;1.88;1.75;;;51.30;23.10;;;;;;5059402;28;20715;-82
2022/08/15 12:48:47;;;;;;;1.98;1.98;;;50.70;23.10;;;;;;5058468;28;20219;-82
2022/08/15 12:51:27;;;;;;;2.20;2.20;;;49.60;23.90;;;;;;5058364;28;20219;-83
2022/08/15 12:53:56;;;;;;;2.70;2.70;;;48.40;24.40;;;;;;5061442;28;20228;-82
2022/08/15 12:56:24;;;;;;;2.60;2.57;;;47.60;24.90;;;;;;5058011;28;20521;-82
2022/08/15 12:59:11;;;;;;;2.67;2.67;;;46.90;25.60;;;;;;5057245;28;20450;-82
2022/08/15 13:01:40;;;;;;;2.80;2.80;;;46.30;26.10;;;;;;5059382;28;20556;-83
2022/08/15 13:04:25;;;;;;;2.80;2.70;;;45.80;26.50;;;;;;5057176;28;20454;-82
2022/08/15 13:07:14;;;;;;;3.17;2.87;;;45.30;26.70;;;;;;5057405;28;20429;-82
2022/08/15 13:09:58;;;;;;;3.23;2.93;;;44.80;27.00;;;;;;5057432;28;20438;-81
2022/08/15 13:12:26;;;;;;;2.93;2.93;;;44.50;27.30;;;;;;5056659;28;20434;-82
2022/08/15 13:14:55;;;;;;;3.13;3.13;;;44.20;27.60;;;;;;5056949;28;20462;-82
2022/08/15 13:17:23;;;;;;;3.00;2.90;;;43.90;27.70;;;;;;5056038;28;20496;-82
2022/08/15 13:25:47;;;;;;;3.60;3.50;;;43.10;28.20;;;;;;5061717;28;20522;-82
2022/08/15 13:28:23;;;;;;;3.97;3.77;;;42.90;28.20;;;;;;5058235;28;20450;-81
2022/08/15 13:31:00;;;;;;;4.23;4.03;;;42.80;28.30;;;;;;5057085;28;20516;-83
2022/08/15 13:33:32;;;;;;;4.17;3.93;;;42.60;28.50;;;;;;5056832;28;20442;-82
2022/08/15 13:36:01;;;;;;;4.20;4.10;;;42.40;28.60;;;;;;5056045;28;20438;-82
2022/08/15 13:38:33;;;;;;;4.37;4.07;;;42.20;28.60;;;;;;5056215;28;20476;-82
2022/08/15 13:41:01;;;;;;;4.30;4.10;;;42.00;28.60;;;;;;5056152;28;20450;-82
2022/08/15 13:43:32;;;;;;;4.33;4.00;;;41.70;28.70;;;;;;5057189;28;20442;-82
2022/08/15 13:46:25;;;;;;;4.47;4.30;;;41.50;29.00;;;;;;5056515;28;20524;-82
2022/08/15 13:48:59;;;;;;;3.70;3.50;;;41.20;29.30;;;;;;5057296;28;20482;-82
2022/08/15 13:51:36;;;;;;;4.70;4.40;;;40.90;29.60;;;;;;5060460;28;20438;-82
2022/08/15 13:54:26;;;;;;;4.70;4.40;;;40.60;29.80;;;;;;5060358;28;20458;-82
2022/08/15 13:57:00;;;;;;;4.50;4.30;;;40.20;30.10;;;;;;5059793;28;20434;-81
2022/08/15 13:59:30;;;;;;;4.70;4.40;;;40.00;30.50;;;;;;5060863;28;20508;-82
2022/08/15 14:01:59;;;;;;;4.53;4.33;;;39.70;30.80;;;;;;5059459;28;20470;-82
2022/08/15 14:04:47;;;;;;;4.70;4.50;;;39.50;31.10;;;;;;5060253;28;20545;-82
2022/08/15 14:07:26;;;;;;;5.03;4.73;;;39.20;31.40;;;;;;5060219;28;20829;-82
2022/08/15 14:10:16;;;;;;;4.63;4.43;;;39.10;31.70;;;;;;5060222;28;20434;-83
2022/08/15 14:13:04;;;;;;;4.83;4.63;;;38.90;31.90;;;;;;5059836;28;20441;-83
2022/08/15 14:15:45;;;;;;;3.97;3.87;;;38.80;32.10;;;;;;5061089;28;20456;-79
2022/08/15 14:18:35;;;;;;;5.10;4.70;;;38.60;32.10;;;;;;5061787;28;20430;-79
2022/08/15 14:21:20;;;;;;;4.53;4.23;;;38.50;32.40;;;;;;5061100;28;20461;-79
2022/08/15 14:23:55;;;;;;;6.57;4.30;;;38.40;32.50;;;;;;5061141;28;20512;-79